sensor_id;sensor_type;location;lat;lon;timestamp;P1;P2;P0
46885;PMS5003;32622;48.202;11.326;2023-08-06T00:00:04;8;6;
46885;PMS5003;32622;48.202;11.326;2023-08-06T00:02:07;8;6;
46885;PMS5003;32622;48.202;11.326;2023-08-06T00:04:10;6;5;
46885;PMS5003;32622;48.202;11.326;2023-08-06T00:06:12;6;5;
46885;PMS5003;32622;48.202;11.326;2023-08-06T00:08:14;6;5;
46885;PMS5003;32622;48.202;11.326;2023-08-06T00:10:17;6;5;
46885;PMS5003;32622;48.202;11.326;2023-08-06T00:12:19;7;6;
46885;PMS5003;32622;48.202;11.326;2023-08-06T00:14:21;7;6;
46885;PMS5003;32622;48.202;11.326;2023-08-06T00:16:23;7;6;
46885;PMS5003;32622;48.202;11.326;2023-08-06T00:18:25;7;6;
46885;PMS5003;32622;48.202;11.326;2023-08-06T00:20:27;7;6;
46885;PMS5003;32622;48.202;11.326;2023-08-06T00:22:30;6;6;
46885;PMS5003;32622;48.202;11.326;2023-08-06T00:24:32;6;6;
46885;PMS5003;32622;48.202;11.326;2023-08-06T00:26:35;6;6;
46885;PMS5003;32622;48.202;11.326;2023-08-06T00:28:37;7;7;
46885;PMS5003;32622;48.202;11.326;2023-08-06T00:30:39;7;7;
46885;PMS5003;32622;48.202;11.326;2023-08-06T00:32:41;7;7;
46885;PMS5003;32622;48.202;11.326;2023-08-06T00:34:43;7;7;
46885;PMS5003;32622;48.202;11.326;2023-08-06T00:36:46;7;7;
46885;PMS5003;32622;48.202;11.326;2023-08-06T00:38:48;7;7;
46885;PMS5003;32622;48.202;11.326;2023-08-06T00:40:50;7;7;
46885;PMS5003;32622;48.202;11.326;2023-08-06T00:42:52;7;7;
46885;PMS5003;32622;48.202;11.326;2023-08-06T00:44:54;7;7;
46885;PMS5003;32622;48.202;11.326;2023-08-06T00:46:56;8;7;
46885;PMS5003;32622;48.202;11.326;2023-08-06T00:48:58;8;7;
46885;PMS5003;32622;48.202;11.326;2023-08-06T00:51:01;8;7;
46885;PMS5003;32622;48.202;11.326;2023-08-06T00:53:04;9;8;
46885;PMS5003;32622;48.202;11.326;2023-08-06T00:55:06;9;8;
46885;PMS5003;32622;48.202;11.326;2023-08-06T00:57:09;9;8;
46885;PMS5003;32622;48.202;11.326;2023-08-06T00:59:12;10;8;
46885;PMS5003;32622;48.202;11.326;2023-08-06T01:01:15;10;8;
46885;PMS5003;32622;48.202;11.326;2023-08-06T01:03:17;10;8;
46885;PMS5003;32622;48.202;11.326;2023-08-06T01:05:20;10;9;
46885;PMS5003;32622;48.202;11.326;2023-08-06T01:07:28;10;9;
46885;PMS5003;32622;48.202;11.326;2023-08-06T01:09:45;10;9;
46885;PMS5003;32622;48.202;11.326;2023-08-06T01:12:00;10;9;
46885;PMS5003;32622;48.202;11.326;2023-08-06T01:14:12;10;9;
46885;PMS5003;32622;48.202;11.326;2023-08-06T01:16:23;10;9;
46885;PMS5003;32622;48.202;11.326;2023-08-06T01:18:26;10;9;
46885;PMS5003;32622;48.202;11.326;2023-08-06T01:20:57;10;9;
46885;PMS5003;32622;48.202;11.326;2023-08-06T01:22:59;10;9;
46885;PMS5003;32622;48.202;11.326;2023-08-06T01:25:01;9;8;
46885;PMS5003;32622;48.202;11.326;2023-08-06T01:27:06;9;8;
46885;PMS5003;32622;48.202;11.326;2023-08-06T01:29:15;9;8;
46885;PMS5003;32622;48.202;11.326;2023-08-06T01:31:21;9;8;
46885;PMS5003;32622;48.202;11.326;2023-08-06T01:33:27;9;8;
46885;PMS5003;32622;48.202;11.326;2023-08-06T01:35:33;9;8;
46885;PMS5003;32622;48.202;11.326;2023-08-06T01:37:38;9;8;
46885;PMS5003;32622;48.202;11.326;2023-08-06T01:39:42;9;8;
46885;PMS5003;32622;48.202;11.326;2023-08-06T01:41:44;9;8;
46885;PMS5003;32622;48.202;11.326;2023-08-06T01:43:46;9;8;
46885;PMS5003;32622;48.202;11.326;2023-08-06T01:45:48;9;8;
46885;PMS5003;32622;48.202;11.326;2023-08-06T01:47:50;9;8;
46885;PMS5003;32622;48.202;11.326;2023-08-06T01:49:53;8;8;
46885;PMS5003;32622;48.202;11.326;2023-08-06T01:51:55;8;8;
46885;PMS5003;32622;48.202;11.326;2023-08-06T01:53:57;8;8;
46885;PMS5003;32622;48.202;11.326;2023-08-06T01:55:59;8;8;
46885;PMS5003;32622;48.202;11.326;2023-08-06T01:58:01;8;8;
46885;PMS5003;32622;48.202;11.326;2023-08-06T02:00:04;8;8;
46885;PMS5003;32622;48.202;11.326;2023-08-06T02:02:06;8;8;
46885;PMS5003;32622;48.202;11.326;2023-08-06T02:04:09;8;8;
46885;PMS5003;32622;48.202;11.326;2023-08-06T02:06:11;8;8;
46885;PMS5003;32622;48.202;11.326;2023-08-06T02:08:13;8;8;
46885;PMS5003;32622;48.202;11.326;2023-08-06T02:10:15;8;8;
46885;PMS5003;32622;48.202;11.326;2023-08-06T02:12:17;8;8;
46885;PMS5003;32622;48.202;11.326;2023-08-06T02:14:20;8;8;
46885;PMS5003;32622;48.202;11.326;2023-08-06T02:16:22;8;8;
46885;PMS5003;32622;48.202;11.326;2023-08-06T02:18:24;8;8;
46885;PMS5003;32622;48.202;11.326;2023-08-06T02:20:26;8;8;
46885;PMS5003;32622;48.202;11.326;2023-08-06T02:22:28;8;8;
46885;PMS5003;32622;48.202;11.326;2023-08-06T02:24:30;8;8;
46885;PMS5003;32622;48.202;11.326;2023-08-06T02:26:32;7;7;
46885;PMS5003;32622;48.202;11.326;2023-08-06T02:28:34;7;7;
46885;PMS5003;32622;48.202;11.326;2023-08-06T02:30:37;7;7;
46885;PMS5003;32622;48.202;11.326;2023-08-06T02:32:39;7;7;
46885;PMS5003;32622;48.202;11.326;2023-08-06T02:34:41;8;8;
46885;PMS5003;32622;48.202;11.326;2023-08-06T02:36:44;8;8;
46885;PMS5003;32622;48.202;11.326;2023-08-06T02:38:46;7;7;
46885;PMS5003;32622;48.202;11.326;2023-08-06T02:40:48;7;7;
46885;PMS5003;32622;48.202;11.326;2023-08-06T02:42:50;7;7;
46885;PMS5003;32622;48.202;11.326;2023-08-06T02:44:52;8;8;
46885;PMS5003;32622;48.202;11.326;2023-08-06T02:46:55;8;8;
46885;PMS5003;32622;48.202;11.326;2023-08-06T02:48:57;7;7;
46885;PMS5003;32622;48.202;11.326;2023-08-06T02:50:59;6;6;
46885;PMS5003;32622;48.202;11.326;2023-08-06T02:53:01;6;6;
46885;PMS5003;32622;48.202;11.326;2023-08-06T02:55:04;6;6;
46885;PMS5003;32622;48.202;11.326;2023-08-06T02:57:07;5;5;
46885;PMS5003;32622;48.202;11.326;2023-08-06T02:59:09;5;5;
46885;PMS5003;32622;48.202;11.326;2023-08-06T03:01:12;5;5;
46885;PMS5003;32622;48.202;11.326;2023-08-06T03:03:14;5;5;
46885;PMS5003;32622;48.202;11.326;2023-08-06T03:05:16;5;5;
46885;PMS5003;32622;48.202;11.326;2023-08-06T03:07:18;5;5;
46885;PMS5003;32622;48.202;11.326;2023-08-06T03:09:20;5;5;
46885;PMS5003;32622;48.202;11.326;2023-08-06T03:11:22;5;5;
46885;PMS5003;32622;48.202;11.326;2023-08-06T03:13:24;5;5;
46885;PMS5003;32622;48.202;11.326;2023-08-06T03:15:26;6;6;
46885;PMS5003;32622;48.202;11.326;2023-08-06T03:17:29;7;7;
46885;PMS5003;32622;48.202;11.326;2023-08-06T03:19:31;7;7;
46885;PMS5003;32622;48.202;11.326;2023-08-06T03:21:33;7;7;
46885;PMS5003;32622;48.202;11.326;2023-08-06T03:23:35;7;7;
46885;PMS5003;32622;48.202;11.326;2023-08-06T03:25:37;7;7;
46885;PMS5003;32622;48.202;11.326;2023-08-06T03:27:39;7;7;
46885;PMS5003;32622;48.202;11.326;2023-08-06T03:29:41;7;7;
46885;PMS5003;32622;48.202;11.326;2023-08-06T03:31:51;7;7;
46885;PMS5003;32622;48.202;11.326;2023-08-06T03:33:53;8;8;
46885;PMS5003;32622;48.202;11.326;2023-08-06T03:35:56;8;8;
46885;PMS5003;32622;48.202;11.326;2023-08-06T03:37:58;8;8;
46885;PMS5003;32622;48.202;11.326;2023-08-06T03:40:00;8;8;
46885;PMS5003;32622;48.202;11.326;2023-08-06T03:42:02;8;8;
46885;PMS5003;32622;48.202;11.326;2023-08-06T03:44:05;8;8;
46885;PMS5003;32622;48.202;11.326;2023-08-06T03:46:07;8;8;
46885;PMS5003;32622;48.202;11.326;2023-08-06T03:48:09;8;8;
46885;PMS5003;32622;48.202;11.326;2023-08-06T03:50:12;8;8;
46885;PMS5003;32622;48.202;11.326;2023-08-06T03:52:14;8;8;
46885;PMS5003;32622;48.202;11.326;2023-08-06T03:54:16;8;8;
46885;PMS5003;32622;48.202;11.326;2023-08-06T03:56:18;8;8;
46885;PMS5003;32622;48.202;11.326;2023-08-06T03:58:20;8;8;
46885;PMS5003;32622;48.202;11.326;2023-08-06T04:00:23;8;8;
46885;PMS5003;32622;48.202;11.326;2023-08-06T04:02:25;8;8;
46885;PMS5003;32622;48.202;11.326;2023-08-06T04:04:27;9;9;
46885;PMS5003;32622;48.202;11.326;2023-08-06T04:06:29;9;9;
46885;PMS5003;32622;48.202;11.326;2023-08-06T04:08:31;9;9;
46885;PMS5003;32622;48.202;11.326;2023-08-06T04:10:34;8;8;
46885;PMS5003;32622;48.202;11.326;2023-08-06T04:12:36;8;8;
46885;PMS5003;32622;48.202;11.326;2023-08-06T04:14:38;8;8;
46885;PMS5003;32622;48.202;11.326;2023-08-06T04:16:40;8;8;
46885;PMS5003;32622;48.202;11.326;2023-08-06T04:18:42;8;8;
46885;PMS5003;32622;48.202;11.326;2023-08-06T04:20:44;8;8;
46885;PMS5003;32622;48.202;11.326;2023-08-06T04:22:47;8;8;
46885;PMS5003;32622;48.202;11.326;2023-08-06T04:24:49;8;8;
46885;PMS5003;32622;48.202;11.326;2023-08-06T04:26:51;8;8;
46885;PMS5003;32622;48.202;11.326;2023-08-06T04:28:53;9;9;
46885;PMS5003;32622;48.202;11.326;2023-08-06T04:30:55;9;9;
46885;PMS5003;32622;48.202;11.326;2023-08-06T04:32:57;9;9;
46885;PMS5003;32622;48.202;11.326;2023-08-06T04:35:00;8;8;
46885;PMS5003;32622;48.202;11.326;2023-08-06T04:37:02;8;8;
46885;PMS5003;32622;48.202;11.326;2023-08-06T04:39:05;8;8;
46885;PMS5003;32622;48.202;11.326;2023-08-06T04:41:07;8;8;
46885;PMS5003;32622;48.202;11.326;2023-08-06T04:43:10;8;8;
46885;PMS5003;32622;48.202;11.326;2023-08-06T04:45:12;8;8;
46885;PMS5003;32622;48.202;11.326;2023-08-06T04:47:14;7;7;
46885;PMS5003;32622;48.202;11.326;2023-08-06T04:49:17;7;7;
46885;PMS5003;32622;48.202;11.326;2023-08-06T04:51:19;7;7;
46885;PMS5003;32622;48.202;11.326;2023-08-06T04:53:21;6;6;
46885;PMS5003;32622;48.202;11.326;2023-08-06T04:55:23;7;7;
46885;PMS5003;32622;48.202;11.326;2023-08-06T04:57:25;7;7;
46885;PMS5003;32622;48.202;11.326;2023-08-06T04:59:27;8;8;
46885;PMS5003;32622;48.202;11.326;2023-08-06T05:01:29;8;8;
46885;PMS5003;32622;48.202;11.326;2023-08-06T05:03:31;8;8;
46885;PMS5003;32622;48.202;11.326;2023-08-06T05:05:34;8;8;
46885;PMS5003;32622;48.202;11.326;2023-08-06T05:07:36;8;8;
46885;PMS5003;32622;48.202;11.326;2023-08-06T05:09:38;8;8;
46885;PMS5003;32622;48.202;11.326;2023-08-06T05:11:40;8;8;
46885;PMS5003;32622;48.202;11.326;2023-08-06T05:13:42;8;8;
46885;PMS5003;32622;48.202;11.326;2023-08-06T05:15:44;8;8;
46885;PMS5003;32622;48.202;11.326;2023-08-06T05:17:46;8;8;
46885;PMS5003;32622;48.202;11.326;2023-08-06T05:19:49;8;8;
46885;PMS5003;32622;48.202;11.326;2023-08-06T05:21:51;8;8;
46885;PMS5003;32622;48.202;11.326;2023-08-06T05:23:53;8;8;
46885;PMS5003;32622;48.202;11.326;2023-08-06T05:25:55;8;8;
46885;PMS5003;32622;48.202;11.326;2023-08-06T05:27:57;8;8;
46885;PMS5003;32622;48.202;11.326;2023-08-06T05:29:59;7;7;
46885;PMS5003;32622;48.202;11.326;2023-08-06T05:32:02;7;7;
46885;PMS5003;32622;48.202;11.326;2023-08-06T05:34:04;7;7;
46885;PMS5003;32622;48.202;11.326;2023-08-06T05:36:06;7;7;
46885;PMS5003;32622;48.202;11.326;2023-08-06T05:38:08;7;7;
46885;PMS5003;32622;48.202;11.326;2023-08-06T05:40:11;7;7;
46885;PMS5003;32622;48.202;11.326;2023-08-06T05:42:13;7;7;
46885;PMS5003;32622;48.202;11.326;2023-08-06T05:44:15;7;7;
46885;PMS5003;32622;48.202;11.326;2023-08-06T05:46:17;7;7;
46885;PMS5003;32622;48.202;11.326;2023-08-06T05:48:19;7;7;
46885;PMS5003;32622;48.202;11.326;2023-08-06T05:50:21;7;7;
46885;PMS5003;32622;48.202;11.326;2023-08-06T05:52:23;7;7;
46885;PMS5003;32622;48.202;11.326;2023-08-06T05:54:25;7;7;
46885;PMS5003;32622;48.202;11.326;2023-08-06T05:56:27;7;7;
46885;PMS5003;32622;48.202;11.326;2023-08-06T05:58:30;7;7;
46885;PMS5003;32622;48.202;11.326;2023-08-06T06:00:32;6;6;
46885;PMS5003;32622;48.202;11.326;2023-08-06T06:02:34;6;6;
46885;PMS5003;32622;48.202;11.326;2023-08-06T06:04:36;6;6;
46885;PMS5003;32622;48.202;11.326;2023-08-06T06:06:39;6;6;
46885;PMS5003;32622;48.202;11.326;2023-08-06T06:08:41;6;6;
46885;PMS5003;32622;48.202;11.326;2023-08-06T06:10:43;6;6;
46885;PMS5003;32622;48.202;11.326;2023-08-06T06:12:45;5;5;
46885;PMS5003;32622;48.202;11.326;2023-08-06T06:14:47;5;5;
46885;PMS5003;32622;48.202;11.326;2023-08-06T06:16:49;5;5;
46885;PMS5003;32622;48.202;11.326;2023-08-06T06:18:52;5;5;
46885;PMS5003;32622;48.202;11.326;2023-08-06T06:20:54;5;5;
46885;PMS5003;32622;48.202;11.326;2023-08-06T06:22:56;5;5;
46885;PMS5003;32622;48.202;11.326;2023-08-06T06:24:58;5;5;
46885;PMS5003;32622;48.202;11.326;2023-08-06T06:27:00;5;5;
46885;PMS5003;32622;48.202;11.326;2023-08-06T06:29:02;5;5;
46885;PMS5003;32622;48.202;11.326;2023-08-06T06:31:04;5;5;
46885;PMS5003;32622;48.202;11.326;2023-08-06T06:33:06;5;5;
46885;PMS5003;32622;48.202;11.326;2023-08-06T06:35:09;5;5;
46885;PMS5003;32622;48.202;11.326;2023-08-06T06:37:12;5;5;
46885;PMS5003;32622;48.202;11.326;2023-08-06T06:39:15;5;5;
46885;PMS5003;32622;48.202;11.326;2023-08-06T06:41:35;5;5;
46885;PMS5003;32622;48.202;11.326;2023-08-06T06:43:37;5;5;
46885;PMS5003;32622;48.202;11.326;2023-08-06T06:45:39;5;5;
46885;PMS5003;32622;48.202;11.326;2023-08-06T06:47:42;5;5;
46885;PMS5003;32622;48.202;11.326;2023-08-06T06:49:44;5;5;
46885;PMS5003;32622;48.202;11.326;2023-08-06T06:51:46;5;5;
46885;PMS5003;32622;48.202;11.326;2023-08-06T06:53:48;5;5;
46885;PMS5003;32622;48.202;11.326;2023-08-06T06:55:50;4;4;
46885;PMS5003;32622;48.202;11.326;2023-08-06T06:57:52;4;4;
46885;PMS5003;32622;48.202;11.326;2023-08-06T06:59:55;4;4;
46885;PMS5003;32622;48.202;11.326;2023-08-06T07:01:57;5;5;
46885;PMS5003;32622;48.202;11.326;2023-08-06T07:03:59;5;5;
46885;PMS5003;32622;48.202;11.326;2023-08-06T07:06:01;5;5;
46885;PMS5003;32622;48.202;11.326;2023-08-06T07:08:03;6;6;
46885;PMS5003;32622;48.202;11.326;2023-08-06T07:10:06;6;6;
46885;PMS5003;32622;48.202;11.326;2023-08-06T07:12:09;6;6;
46885;PMS5003;32622;48.202;11.326;2023-08-06T07:14:11;6;6;
46885;PMS5003;32622;48.202;11.326;2023-08-06T07:16:13;6;6;
46885;PMS5003;32622;48.202;11.326;2023-08-06T07:18:15;6;6;
46885;PMS5003;32622;48.202;11.326;2023-08-06T07:20:17;5;5;
46885;PMS5003;32622;48.202;11.326;2023-08-06T07:22:19;5;5;
46885;PMS5003;32622;48.202;11.326;2023-08-06T07:24:22;5;5;
46885;PMS5003;32622;48.202;11.326;2023-08-06T07:26:24;6;6;
46885;PMS5003;32622;48.202;11.326;2023-08-06T07:28:26;6;6;
46885;PMS5003;32622;48.202;11.326;2023-08-06T07:30:28;6;6;
46885;PMS5003;32622;48.202;11.326;2023-08-06T07:32:30;6;6;
46885;PMS5003;32622;48.202;11.326;2023-08-06T07:34:32;6;6;
46885;PMS5003;32622;48.202;11.326;2023-08-06T07:36:34;6;6;
46885;PMS5003;32622;48.202;11.326;2023-08-06T07:38:36;6;6;
46885;PMS5003;32622;48.202;11.326;2023-08-06T07:40:40;6;6;
46885;PMS5003;32622;48.202;11.326;2023-08-06T07:42:42;6;6;
46885;PMS5003;32622;48.202;11.326;2023-08-06T07:44:44;7;7;
46885;PMS5003;32622;48.202;11.326;2023-08-06T07:46:46;7;7;
46885;PMS5003;32622;48.202;11.326;2023-08-06T07:48:48;7;7;
46885;PMS5003;32622;48.202;11.326;2023-08-06T07:50:51;7;7;
46885;PMS5003;32622;48.202;11.326;2023-08-06T07:52:53;7;7;
46885;PMS5003;32622;48.202;11.326;2023-08-06T07:54:55;7;7;
46885;PMS5003;32622;48.202;11.326;2023-08-06T07:56:57;8;8;
46885;PMS5003;32622;48.202;11.326;2023-08-06T07:58:59;8;8;
46885;PMS5003;32622;48.202;11.326;2023-08-06T08:01:01;8;8;
46885;PMS5003;32622;48.202;11.326;2023-08-06T08:03:04;7;7;
46885;PMS5003;32622;48.202;11.326;2023-08-06T08:05:06;7;7;
46885;PMS5003;32622;48.202;11.326;2023-08-06T08:07:09;7;7;
46885;PMS5003;32622;48.202;11.326;2023-08-06T08:09:12;8;8;
46885;PMS5003;32622;48.202;11.326;2023-08-06T08:11:14;8;8;
46885;PMS5003;32622;48.202;11.326;2023-08-06T08:13:16;8;8;
46885;PMS5003;32622;48.202;11.326;2023-08-06T08:15:18;8;8;
46885;PMS5003;32622;48.202;11.326;2023-08-06T08:17:21;8;8;
46885;PMS5003;32622;48.202;11.326;2023-08-06T08:19:23;8;8;
46885;PMS5003;32622;48.202;11.326;2023-08-06T08:21:25;9;8;
46885;PMS5003;32622;48.202;11.326;2023-08-06T08:23:27;9;8;
46885;PMS5003;32622;48.202;11.326;2023-08-06T08:25:30;9;8;
46885;PMS5003;32622;48.202;11.326;2023-08-06T08:27:32;8;7;
46885;PMS5003;32622;48.202;11.326;2023-08-06T08:29:34;8;7;
46885;PMS5003;32622;48.202;11.326;2023-08-06T08:31:36;8;7;
46885;PMS5003;32622;48.202;11.326;2023-08-06T08:33:38;9;8;
46885;PMS5003;32622;48.202;11.326;2023-08-06T08:35:40;9;8;
46885;PMS5003;32622;48.202;11.326;2023-08-06T08:37:42;9;8;
46885;PMS5003;32622;48.202;11.326;2023-08-06T08:39:45;9;8;
46885;PMS5003;32622;48.202;11.326;2023-08-06T08:41:47;9;8;
46885;PMS5003;32622;48.202;11.326;2023-08-06T08:43:49;9;8;
46885;PMS5003;32622;48.202;11.326;2023-08-06T08:45:52;9;8;
46885;PMS5003;32622;48.202;11.326;2023-08-06T08:47:55;9;8;
46885;PMS5003;32622;48.202;11.326;2023-08-06T08:49:57;9;8;
46885;PMS5003;32622;48.202;11.326;2023-08-06T08:52:02;9;8;
46885;PMS5003;32622;48.202;11.326;2023-08-06T08:54:06;9;8;
46885;PMS5003;32622;48.202;11.326;2023-08-06T08:56:10;9;8;
46885;PMS5003;32622;48.202;11.326;2023-08-06T08:58:14;9;8;
46885;PMS5003;32622;48.202;11.326;2023-08-06T09:00:16;9;8;
46885;PMS5003;32622;48.202;11.326;2023-08-06T09:02:19;9;8;
46885;PMS5003;32622;48.202;11.326;2023-08-06T09:04:24;9;8;
46885;PMS5003;32622;48.202;11.326;2023-08-06T09:06:29;9;8;
46885;PMS5003;32622;48.202;11.326;2023-08-06T09:08:36;9;8;
46885;PMS5003;32622;48.202;11.326;2023-08-06T09:10:41;9;8;
46885;PMS5003;32622;48.202;11.326;2023-08-06T09:12:44;9;8;
46885;PMS5003;32622;48.202;11.326;2023-08-06T09:14:48;9;8;
46885;PMS5003;32622;48.202;11.326;2023-08-06T09:16:50;9;8;
46885;PMS5003;32622;48.202;11.326;2023-08-06T09:18:53;9;8;
46885;PMS5003;32622;48.202;11.326;2023-08-06T09:20:55;9;8;
46885;PMS5003;32622;48.202;11.326;2023-08-06T09:22:58;9;9;
46885;PMS5003;32622;48.202;11.326;2023-08-06T09:25:08;9;9;
46885;PMS5003;32622;48.202;11.326;2023-08-06T09:27:10;9;9;
46885;PMS5003;32622;48.202;11.326;2023-08-06T09:29:13;8;8;
46885;PMS5003;32622;48.202;11.326;2023-08-06T09:31:15;8;8;
46885;PMS5003;32622;48.202;11.326;2023-08-06T09:33:17;8;8;
46885;PMS5003;32622;48.202;11.326;2023-08-06T09:35:21;7;7;
46885;PMS5003;32622;48.202;11.326;2023-08-06T09:37:23;7;7;
46885;PMS5003;32622;48.202;11.326;2023-08-06T09:39:27;7;7;
46885;PMS5003;32622;48.202;11.326;2023-08-06T09:41:30;7;7;
46885;PMS5003;32622;48.202;11.326;2023-08-06T09:43:39;7;7;
46885;PMS5003;32622;48.202;11.326;2023-08-06T09:45:41;7;7;
46885;PMS5003;32622;48.202;11.326;2023-08-06T09:47:43;6;6;
46885;PMS5003;32622;48.202;11.326;2023-08-06T09:49:45;6;6;
46885;PMS5003;32622;48.202;11.326;2023-08-06T09:51:48;6;6;
46885;PMS5003;32622;48.202;11.326;2023-08-06T09:53:52;6;6;
46885;PMS5003;32622;48.202;11.326;2023-08-06T09:55:54;6;6;
46885;PMS5003;32622;48.202;11.326;2023-08-06T09:57:58;6;6;
46885;PMS5003;32622;48.202;11.326;2023-08-06T10:00:01;6;6;
46885;PMS5003;32622;48.202;11.326;2023-08-06T10:02:03;6;6;
46885;PMS5003;32622;48.202;11.326;2023-08-06T10:04:13;6;6;
46885;PMS5003;32622;48.202;11.326;2023-08-06T10:06:16;6;6;
46885;PMS5003;32622;48.202;11.326;2023-08-06T10:08:19;6;6;
46885;PMS5003;32622;48.202;11.326;2023-08-06T10:10:21;6;6;
46885;PMS5003;32622;48.202;11.326;2023-08-06T10:12:24;6;6;
46885;PMS5003;32622;48.202;11.326;2023-08-06T10:14:30;6;6;
46885;PMS5003;32622;48.202;11.326;2023-08-06T10:16:36;6;6;
46885;PMS5003;32622;48.202;11.326;2023-08-06T10:18:40;6;6;
46885;PMS5003;32622;48.202;11.326;2023-08-06T10:20:43;6;6;
46885;PMS5003;32622;48.202;11.326;2023-08-06T10:22:45;6;6;
46885;PMS5003;32622;48.202;11.326;2023-08-06T10:25:01;6;6;
46885;PMS5003;32622;48.202;11.326;2023-08-06T10:27:04;6;6;
46885;PMS5003;32622;48.202;11.326;2023-08-06T10:31:54;6;6;
46885;PMS5003;32622;48.202;11.326;2023-08-06T10:33:59;6;6;
46885;PMS5003;32622;48.202;11.326;2023-08-06T10:36:02;6;6;
46885;PMS5003;32622;48.202;11.326;2023-08-06T10:38:05;5;5;
46885;PMS5003;32622;48.202;11.326;2023-08-06T10:40:09;5;5;
46885;PMS5003;32622;48.202;11.326;2023-08-06T10:42:19;5;5;
46885;PMS5003;32622;48.202;11.326;2023-08-06T10:44:21;6;6;
46885;PMS5003;32622;48.202;11.326;2023-08-06T10:46:27;6;6;
46885;PMS5003;32622;48.202;11.326;2023-08-06T10:48:29;6;6;
46885;PMS5003;32622;48.202;11.326;2023-08-06T10:50:32;6;6;
46885;PMS5003;32622;48.202;11.326;2023-08-06T10:52:35;6;6;
46885;PMS5003;32622;48.202;11.326;2023-08-06T10:54:37;6;6;
46885;PMS5003;32622;48.202;11.326;2023-08-06T10:56:40;7;7;
46885;PMS5003;32622;48.202;11.326;2023-08-06T10:58:42;7;7;
46885;PMS5003;32622;48.202;11.326;2023-08-06T11:00:45;7;7;
46885;PMS5003;32622;48.202;11.326;2023-08-06T11:02:47;8;8;
46885;PMS5003;32622;48.202;11.326;2023-08-06T11:04:50;8;8;
46885;PMS5003;32622;48.202;11.326;2023-08-06T11:06:52;8;8;
46885;PMS5003;32622;48.202;11.326;2023-08-06T11:08:54;7;7;
46885;PMS5003;32622;48.202;11.326;2023-08-06T11:11:07;7;7;
46885;PMS5003;32622;48.202;11.326;2023-08-06T11:13:10;7;7;
46885;PMS5003;32622;48.202;11.326;2023-08-06T11:15:12;8;8;
46885;PMS5003;32622;48.202;11.326;2023-08-06T11:17:15;8;8;
46885;PMS5003;32622;48.202;11.326;2023-08-06T11:19:17;8;8;
46885;PMS5003;32622;48.202;11.326;2023-08-06T11:21:19;8;8;
46885;PMS5003;32622;48.202;11.326;2023-08-06T11:23:22;8;8;
46885;PMS5003;32622;48.202;11.326;2023-08-06T11:25:24;8;8;
46885;PMS5003;32622;48.202;11.326;2023-08-06T11:27:27;8;8;
46885;PMS5003;32622;48.202;11.326;2023-08-06T11:29:29;8;8;
46885;PMS5003;32622;48.202;11.326;2023-08-06T11:31:31;8;8;
46885;PMS5003;32622;48.202;11.326;2023-08-06T11:33:33;8;8;
46885;PMS5003;32622;48.202;11.326;2023-08-06T11:35:35;8;8;
46885;PMS5003;32622;48.202;11.326;2023-08-06T11:37:39;8;8;
46885;PMS5003;32622;48.202;11.326;2023-08-06T11:39:46;8;8;
46885;PMS5003;32622;48.202;11.326;2023-08-06T11:41:49;8;8;
46885;PMS5003;32622;48.202;11.326;2023-08-06T11:43:52;8;8;
46885;PMS5003;32622;48.202;11.326;2023-08-06T11:45:55;8;8;
46885;PMS5003;32622;48.202;11.326;2023-08-06T11:47:57;8;8;
46885;PMS5003;32622;48.202;11.326;2023-08-06T11:50:00;8;8;
46885;PMS5003;32622;48.202;11.326;2023-08-06T11:52:06;8;8;
46885;PMS5003;32622;48.202;11.326;2023-08-06T11:54:11;7;7;
46885;PMS5003;32622;48.202;11.326;2023-08-06T11:56:13;7;7;
46885;PMS5003;32622;48.202;11.326;2023-08-06T11:58:16;8;8;
46885;PMS5003;32622;48.202;11.326;2023-08-06T12:00:18;9;9;
46885;PMS5003;32622;48.202;11.326;2023-08-06T12:02:21;9;9;
46885;PMS5003;32622;48.202;11.326;2023-08-06T12:04:23;9;9;
46885;PMS5003;32622;48.202;11.326;2023-08-06T12:06:26;9;9;
46885;PMS5003;32622;48.202;11.326;2023-08-06T12:08:29;9;9;
46885;PMS5003;32622;48.202;11.326;2023-08-06T12:10:32;9;9;
46885;PMS5003;32622;48.202;11.326;2023-08-06T12:12:34;9;9;
46885;PMS5003;32622;48.202;11.326;2023-08-06T12:14:36;9;9;
46885;PMS5003;32622;48.202;11.326;2023-08-06T12:16:39;10;10;
46885;PMS5003;32622;48.202;11.326;2023-08-06T12:18:41;10;10;
46885;PMS5003;32622;48.202;11.326;2023-08-06T12:20:43;10;10;
46885;PMS5003;32622;48.202;11.326;2023-08-06T12:22:45;10;10;
46885;PMS5003;32622;48.202;11.326;2023-08-06T12:24:47;10;10;
46885;PMS5003;32622;48.202;11.326;2023-08-06T12:26:49;10;10;
46885;PMS5003;32622;48.202;11.326;2023-08-06T12:28:51;11;11;
46885;PMS5003;32622;48.202;11.326;2023-08-06T12:30:53;11;11;
46885;PMS5003;32622;48.202;11.326;2023-08-06T12:32:56;11;11;
46885;PMS5003;32622;48.202;11.326;2023-08-06T12:34:58;10;10;
46885;PMS5003;32622;48.202;11.326;2023-08-06T12:37:00;10;10;
46885;PMS5003;32622;48.202;11.326;2023-08-06T12:39:03;10;10;
46885;PMS5003;32622;48.202;11.326;2023-08-06T12:41:05;10;10;
46885;PMS5003;32622;48.202;11.326;2023-08-06T12:43:07;10;10;
46885;PMS5003;32622;48.202;11.326;2023-08-06T12:45:09;10;10;
46885;PMS5003;32622;48.202;11.326;2023-08-06T12:47:12;10;10;
46885;PMS5003;32622;48.202;11.326;2023-08-06T12:49:14;10;10;
46885;PMS5003;32622;48.202;11.326;2023-08-06T12:51:16;10;10;
46885;PMS5003;32622;48.202;11.326;2023-08-06T12:53:19;11;11;
46885;PMS5003;32622;48.202;11.326;2023-08-06T12:55:21;11;11;
46885;PMS5003;32622;48.202;11.326;2023-08-06T12:57:23;11;11;
46885;PMS5003;32622;48.202;11.326;2023-08-06T12:59:25;10;10;
46885;PMS5003;32622;48.202;11.326;2023-08-06T13:01:27;10;10;
46885;PMS5003;32622;48.202;11.326;2023-08-06T13:03:29;10;10;
46885;PMS5003;32622;48.202;11.326;2023-08-06T13:05:31;9;9;
46885;PMS5003;32622;48.202;11.326;2023-08-06T13:07:34;9;9;
46885;PMS5003;32622;48.202;11.326;2023-08-06T13:09:36;9;9;
46885;PMS5003;32622;48.202;11.326;2023-08-06T13:11:38;9;9;
46885;PMS5003;32622;48.202;11.326;2023-08-06T13:13:41;9;9;
46885;PMS5003;32622;48.202;11.326;2023-08-06T13:15:43;9;9;
46885;PMS5003;32622;48.202;11.326;2023-08-06T13:17:45;8;8;
46885;PMS5003;32622;48.202;11.326;2023-08-06T13:19:47;8;8;
46885;PMS5003;32622;48.202;11.326;2023-08-06T13:22:05;8;8;
46885;PMS5003;32622;48.202;11.326;2023-08-06T13:24:07;7;7;
46885;PMS5003;32622;48.202;11.326;2023-08-06T13:26:10;7;7;
46885;PMS5003;32622;48.202;11.326;2023-08-06T13:28:12;7;7;
46885;PMS5003;32622;48.202;11.326;2023-08-06T13:30:15;6;6;
46885;PMS5003;32622;48.202;11.326;2023-08-06T13:32:17;7;7;
46885;PMS5003;32622;48.202;11.326;2023-08-06T13:34:19;7;7;
46885;PMS5003;32622;48.202;11.326;2023-08-06T13:36:22;8;8;
46885;PMS5003;32622;48.202;11.326;2023-08-06T13:38:24;8;8;
46885;PMS5003;32622;48.202;11.326;2023-08-06T13:40:26;8;8;
46885;PMS5003;32622;48.202;11.326;2023-08-06T13:42:28;8;8;
46885;PMS5003;32622;48.202;11.326;2023-08-06T13:44:30;8;8;
46885;PMS5003;32622;48.202;11.326;2023-08-06T13:46:32;8;8;
46885;PMS5003;32622;48.202;11.326;2023-08-06T13:48:34;7;7;